Time;durP1;ratioP1;P1;durP2;ratioP2;P2;SDS_P1;SDS_P2;PMS_P1;PMS_P2;Temp;Humidity;BMP_temperature;BMP_pressure;BME280_temperature;BME280_humidity;BME280_pressure;Samples;Min_cycle;Max_cycle;Signal;HPM_P1;HPM_P2
2021/01/14 08:28:34;;;;;;;40.17;22.95;;;0.50;89.70;;;;;;4491090;27;15243088;-74
2021/01/14 08:31:01;;;;;;;37.60;21.30;;;0.60;90.40;;;;;;5015596;28;20379;-71
2021/01/14 08:33:27;;;;;;;42.45;23.13;;;0.60;90.90;;;;;;5021824;28;20442;-72
2021/01/14 08:36:05;;;;;;;46.58;24.50;;;0.70;91.40;;;;;;5036657;28;20377;-73
2021/01/14 08:38:35;;;;;;;44.10;24.48;;;0.80;91.70;;;;;;5039750;28;20338;-74
2021/01/14 08:41:01;;;;;;;42.65;24.40;;;0.80;91.90;;;;;;5045354;28;20453;-73
2021/01/14 08:43:49;;;;;;;42.53;24.95;;;0.80;91.90;;;;;;5023377;28;20346;-75
2021/01/14 08:46:40;;;;;;;48.38;26.38;;;0.80;91.70;;;;;;5026048;28;20682;-74
2021/01/14 08:49:34;;;;;;;38.60;22.80;;;0.90;91.70;;;;;;5045221;28;20024;-73
2021/01/14 08:52:04;;;;;;;37.03;22.50;;;0.90;91.90;;;;;;5025421;28;20391;-73
2021/01/14 08:54:30;;;;;;;40.75;23.85;;;1.00;92.10;;;;;;5029171;28;20031;-72
2021/01/14 08:57:06;;;;;;;44.22;25.38;;;1.10;92.00;;;;;;5043178;28;20426;-72
2021/01/14 08:59:40;;;;;;;39.70;24.08;;;1.10;91.80;;;;;;5036809;28;20470;-73
2021/01/14 09:02:07;;;;;;;;;;;1.20;91.90;;;;;;5022175;28;20330;-73
2021/01/14 09:04:32;;;;;;;43.13;24.75;;;1.20;91.20;;;;;;5044485;28;20543;-72
2021/01/14 09:07:06;;;;;;;41.17;25.50;;;1.20;91.70;;;;;;5037721;28;20055;-75
2021/01/14 09:09:31;;;;;;;40.17;24.33;;;1.20;91.50;;;;;;5036735;28;20769;-72
2021/01/14 09:12:06;;;;;;;41.40;25.63;;;1.30;91.50;;;;;;5043982;28;20446;-75
2021/01/14 09:14:32;;;;;;;;;;;1.30;91.20;;;;;;5004727;27;20474;-71
2021/01/14 09:17:01;;;;;;;39.13;24.08;;;1.20;91.20;;;;;;5012644;28;20330;-71
2021/01/14 09:19:28;;;;;;;33.83;22.23;;;1.20;91.30;;;;;;5014479;28;20423;-71
2021/01/14 09:21:54;;;;;;;42.03;25.83;;;1.30;91.10;;;;;;5009826;28;20040;-72
2021/01/14 09:24:20;;;;;;;33.20;22.55;;;1.30;90.90;;;;;;5002512;28;20672;-73
2021/01/14 09:26:56;;;;;;;35.97;24.30;;;1.20;90.90;;;;;;5005927;28;20398;-69
2021/01/14 09:30:22;;;;;;;36.88;23.52;;;1.30;91.10;;;;;;5021932;28;20455;-71
2021/01/14 09:33:26;;;;;;;35.05;22.92;;;1.30;90.60;;;;;;5002815;28;20535;-69
2021/01/14 09:36:23;;;;;;;33.05;21.45;;;1.30;90.70;;;;;;5021927;28;20459;-76
2021/01/14 09:39:06;;;;;;;34.13;22.60;;;1.30;90.90;;;;;;5005662;28;20478;-73
2021/01/14 09:41:36;;;;;;;29.48;21.15;;;1.30;90.60;;;;;;4989216;28;20451;-68
2021/01/14 09:44:25;;;;;;;29.73;20.88;;;1.30;90.50;;;;;;4992355;28;20458;-72
2021/01/14 09:47:10;;;;;;;28.88;20.02;;;1.40;90.70;;;;;;4989489;28;20546;-71
2021/01/14 09:49:37;;;;;;;30.50;21.17;;;1.40;90.70;;;;;;5005685;28;20340;-72
2021/01/14 09:52:24;;;;;;;28.83;18.83;;;1.40;90.60;;;;;;4985305;28;20148;-72
2021/01/14 09:54:53;;;;;;;25.85;18.27;;;1.40;90.60;;;;;;5001862;28;20543;-68
2021/01/14 09:57:26;;;;;;;31.45;21.58;;;1.50;90.70;;;;;;4989055;28;20340;-71
2021/01/14 10:00:06;;;;;;;27.73;19.90;;;1.50;90.20;;;;;;5001830;28;20415;-73
2021/01/14 10:02:51;;;;;;;;;;;;;;;;;;;;;
2021/01/14 10:05:33;;;;;;;26.95;17.52;;;1.50;90.30;;;;;;4986037;28;20479;-71
2021/01/14 10:08:25;;;;;;;25.00;16.60;;;1.50;90.50;;;;;;5006246;28;20495;-73
2021/01/14 10:11:05;;;;;;;26.33;17.77;;;1.50;90.30;;;;;;4946865;28;20531;-71
2021/01/14 10:14:25;;;;;;;23.40;16.20;;;1.50;90.20;;;;;;4934522;28;20503;-71
2021/01/14 10:17:06;;;;;;;;;;;;;;;;;;;;;
2021/01/14 10:20:12;;;;;;;22.50;14.65;;;1.60;90.00;;;;;;5022039;28;21117;-69
2021/01/14 10:23:13;;;;;;;18.92;14.40;;;1.50;89.80;;;;;;5014346;28;20355;-70
2021/01/14 10:29:57;;;;;;;;;;;;;;;;;;;;;
